createdAt,value
2018-06-15T00:01:04.889Z,15.80
2018-06-15T00:03:33.522Z,15.70
2018-06-15T00:08:30.176Z,15.70
2018-06-15T00:10:58.997Z,15.70
2018-06-15T00:13:27.482Z,15.70
2018-06-15T00:15:56.276Z,15.70
2018-06-15T00:18:27.113Z,15.70
2018-06-15T00:20:55.716Z,15.70
2018-06-15T00:23:24.205Z,15.60
2018-06-15T00:28:20.900Z,15.70
2018-06-15T00:30:49.371Z,15.70
2018-06-15T00:33:17.896Z,15.80
2018-06-15T00:35:46.522Z,15.70
2018-06-15T00:40:43.184Z,15.70
2018-06-15T00:43:11.971Z,15.80
2018-06-15T00:45:40.514Z,15.80
2018-06-15T00:48:09.033Z,15.80
2018-06-15T00:53:05.733Z,15.80
2018-06-15T00:55:34.208Z,15.70
2018-06-15T00:58:02.774Z,15.70
2018-06-15T01:00:31.228Z,15.60
2018-06-15T01:02:59.688Z,15.60
2018-06-15T01:05:28.200Z,15.40
2018-06-15T01:07:56.696Z,15.30
2018-06-15T01:10:25.386Z,15.10
2018-06-15T01:12:53.937Z,15.00
2018-06-15T01:15:22.617Z,15.00
2018-06-15T01:17:51.164Z,14.90
2018-06-15T01:20:19.720Z,14.80
2018-06-15T01:22:48.253Z,14.80
2018-06-15T01:25:16.709Z,14.80
2018-06-15T01:27:45.285Z,14.70
2018-06-15T01:30:13.799Z,14.70
2018-06-15T01:32:42.281Z,14.60
2018-06-15T01:35:11.084Z,14.60
2018-06-15T01:37:39.604Z,14.60
2018-06-15T01:40:08.145Z,14.60
2018-06-15T01:42:36.964Z,14.70
2018-06-15T01:45:05.576Z,14.70
2018-06-15T01:47:34.089Z,14.70
2018-06-15T01:50:02.593Z,14.80
2018-06-15T01:52:31.110Z,14.90
2018-06-15T01:54:59.591Z,14.90
2018-06-15T01:57:28.265Z,14.90
2018-06-15T01:59:57.084Z,15.00
2018-06-15T02:02:25.638Z,15.00
2018-06-15T02:04:54.284Z,15.10
2018-06-15T02:07:22.800Z,15.10
2018-06-15T02:09:51.979Z,15.20
2018-06-15T02:12:20.502Z,15.20
2018-06-15T02:14:49.124Z,15.20
2018-06-15T02:17:17.756Z,15.20
2018-06-15T02:19:46.284Z,15.30
2018-06-15T02:22:14.789Z,15.30
2018-06-15T02:24:43.318Z,15.30
2018-06-15T02:27:11.855Z,15.30
2018-06-15T02:29:40.328Z,15.20
2018-06-15T02:32:08.837Z,15.20
2018-06-15T02:34:37.313Z,15.30
2018-06-15T02:37:06.029Z,15.30
2018-06-15T02:39:34.509Z,15.20
2018-06-15T02:42:03.665Z,15.20
2018-06-15T02:44:32.236Z,15.30
2018-06-15T02:47:00.709Z,15.30
2018-06-15T02:49:29.168Z,15.20
2018-06-15T02:51:57.713Z,15.30
2018-06-15T02:54:26.298Z,15.50
2018-06-15T03:01:51.472Z,15.50
2018-06-15T03:04:19.985Z,15.50
2018-06-15T03:06:48.543Z,15.50
2018-06-15T03:09:17.230Z,15.30
2018-06-15T03:11:45.773Z,15.30
2018-06-15T03:14:14.324Z,15.30
2018-06-15T03:16:42.789Z,15.40
2018-06-15T03:19:11.274Z,15.40
2018-06-15T03:21:39.753Z,15.50
2018-06-15T03:24:08.228Z,15.50
2018-06-15T03:26:36.687Z,15.50
2018-06-15T03:29:05.181Z,15.50
2018-06-15T03:31:33.674Z,15.40
2018-06-15T03:34:02.160Z,15.40
2018-06-15T03:36:30.688Z,15.50
2018-06-15T03:38:59.320Z,15.50
2018-06-15T03:41:28.057Z,15.50
2018-06-15T03:43:56.587Z,15.50
2018-06-15T03:46:25.097Z,15.50
2018-06-15T03:48:53.706Z,15.50
2018-06-15T03:51:22.192Z,15.70
2018-06-15T03:53:50.713Z,15.80
2018-06-15T03:56:19.202Z,15.70
2018-06-15T03:58:47.876Z,15.70
2018-06-15T04:01:16.354Z,15.70
2018-06-15T04:03:44.919Z,15.80
2018-06-15T04:06:13.438Z,15.60
2018-06-15T04:11:10.509Z,15.60
2018-06-15T04:13:39.047Z,15.60
2018-06-15T04:16:07.597Z,15.60
2018-06-15T04:18:36.360Z,15.60
2018-06-15T04:21:04.934Z,15.50
2018-06-15T04:23:33.435Z,15.50
2018-06-15T04:26:02.054Z,15.40
2018-06-15T04:28:30.607Z,15.30
2018-06-15T04:30:59.320Z,15.40
2018-06-15T04:33:27.826Z,15.50
2018-06-15T04:35:56.630Z,15.60
2018-06-15T04:40:53.377Z,15.70
2018-06-15T04:43:22.029Z,15.80
2018-06-15T04:45:50.531Z,16.00
2018-06-15T04:48:19.580Z,16.10
2018-06-15T04:50:48.197Z,16.60
2018-06-15T04:53:16.785Z,17.00
2018-06-15T04:55:45.337Z,17.50
2018-06-15T04:58:13.914Z,18.60
2018-06-15T05:00:42.497Z,19.70
2018-06-15T05:03:14.352Z,20.20
2018-06-15T05:05:44.026Z,19.80
2018-06-15T05:08:12.960Z,20.90
2018-06-15T05:10:41.613Z,20.40
2018-06-15T05:13:10.359Z,19.80
2018-06-15T05:15:39.005Z,19.80
2018-06-15T05:18:07.555Z,20.40
2018-06-15T05:20:36.381Z,20.50
2018-06-15T05:23:05.050Z,20.90
2018-06-15T05:25:33.579Z,21.30
2018-06-15T05:30:30.469Z,19.30
2018-06-15T05:32:59.021Z,18.30
2018-06-15T05:35:27.854Z,18.40
2018-06-15T05:37:56.397Z,18.30
2018-06-15T05:40:25.132Z,18.60
2018-06-15T05:42:53.753Z,18.80
2018-06-15T05:45:22.471Z,18.90
2018-06-15T05:47:51.076Z,19.50
2018-06-15T05:50:19.854Z,19.20
2018-06-15T05:52:48.436Z,19.60
2018-06-15T05:55:17.382Z,18.90
2018-06-15T05:57:46.184Z,18.50
2018-06-15T06:00:15.062Z,18.60
2018-06-15T06:02:43.755Z,20.70
2018-06-15T06:05:12.332Z,21.10
2018-06-15T06:07:41.080Z,21.00
2018-06-15T06:10:09.893Z,21.20
2018-06-15T06:12:38.729Z,20.50
2018-06-15T06:15:07.648Z,19.80
2018-06-15T06:17:36.629Z,19.50
2018-06-15T06:20:07.255Z,18.70
2018-06-15T06:22:35.837Z,18.70
2018-06-15T06:25:04.460Z,18.60
2018-06-15T06:27:33.063Z,18.00
2018-06-15T06:30:01.756Z,17.80
2018-06-15T06:32:30.480Z,17.90
2018-06-15T06:34:59.033Z,17.80
2018-06-15T06:37:27.628Z,17.80
2018-06-15T06:39:56.260Z,17.80
2018-06-15T06:44:53.651Z,18.10
2018-06-15T06:47:22.243Z,18.50
2018-06-15T06:49:51.074Z,18.20
2018-06-15T06:52:19.948Z,18.30
2018-06-15T06:54:48.468Z,19.00
2018-06-15T06:57:17.048Z,19.50
2018-06-15T06:59:45.724Z,19.60
2018-06-15T07:02:14.278Z,19.90
2018-06-15T07:04:42.980Z,21.00
2018-06-15T07:07:11.562Z,20.80
2018-06-15T07:09:40.114Z,20.50
2018-06-15T07:12:11.710Z,20.10
2018-06-15T07:14:40.280Z,20.00
2018-06-15T07:17:09.116Z,20.30
2018-06-15T07:19:37.661Z,21.00
2018-06-15T07:22:06.236Z,21.20
2018-06-15T07:24:35.134Z,20.90
2018-06-15T07:27:04.033Z,20.70
2018-06-15T07:29:32.630Z,20.90
2018-06-15T07:32:01.215Z,21.60
2018-06-15T07:34:29.993Z,20.40
2018-06-15T07:36:58.546Z,20.60
2018-06-15T07:39:27.163Z,21.30
2018-06-15T07:41:55.819Z,21.30
2018-06-15T07:44:24.499Z,20.50
2018-06-15T07:46:53.072Z,19.10
2018-06-15T07:49:21.773Z,19.10
2018-06-15T07:51:50.455Z,19.80
2018-06-15T07:54:19.014Z,19.40
2018-06-15T07:56:47.573Z,19.70
2018-06-15T07:59:16.131Z,20.10
2018-06-15T08:01:44.709Z,19.30
2018-06-15T08:04:13.321Z,19.60
2018-06-15T08:06:42.311Z,19.90
2018-06-15T08:09:10.995Z,19.70
2018-06-15T08:11:39.588Z,20.60
2018-06-15T08:14:08.161Z,20.80
2018-06-15T08:16:36.933Z,20.90
2018-06-15T08:19:05.906Z,21.40
2018-06-15T08:21:34.602Z,21.80
2018-06-15T08:24:03.462Z,22.10
2018-06-15T08:26:32.006Z,21.30
2018-06-15T08:29:00.517Z,20.90
2018-06-15T08:33:58.232Z,20.30
2018-06-15T08:36:26.792Z,21.30
2018-06-15T08:41:23.624Z,21.60
2018-06-15T08:43:52.205Z,22.20
2018-06-15T08:46:21.081Z,22.50
2018-06-15T08:48:50.369Z,22.10
2018-06-15T08:51:19.369Z,22.50
2018-06-15T08:53:48.293Z,22.50
2018-06-15T08:56:17.122Z,23.50
2018-06-15T08:58:45.743Z,24.20
2018-06-15T09:01:14.386Z,24.70
2018-06-15T09:03:43.204Z,25.00
2018-06-15T09:06:11.833Z,25.70
2018-06-15T09:08:40.646Z,25.20
2018-06-15T09:11:09.296Z,24.80
2018-06-15T09:13:37.837Z,23.90
2018-06-15T09:16:06.842Z,24.10
2018-06-15T09:21:04.115Z,25.50
2018-06-15T09:23:32.922Z,25.30
2018-06-15T09:28:30.394Z,25.40
2018-06-15T09:30:59.405Z,25.10
2018-06-15T09:33:28.277Z,25.50
2018-06-15T09:35:56.796Z,25.80
2018-06-15T09:38:25.896Z,26.00
2018-06-15T09:40:54.758Z,26.20
2018-06-15T09:43:23.312Z,26.20
2018-06-15T09:45:51.889Z,26.20
2018-06-15T09:48:20.537Z,25.80
2018-06-15T09:50:49.055Z,25.60
2018-06-15T09:53:17.842Z,25.90
2018-06-15T09:55:46.436Z,25.40
2018-06-15T09:58:15.121Z,25.30
2018-06-15T10:00:49.161Z,25.60
2018-06-15T10:03:18.013Z,26.10
2018-06-15T10:05:46.879Z,26.30
2018-06-15T10:08:15.402Z,25.60
2018-06-15T10:10:44.295Z,25.30
2018-06-15T10:13:12.853Z,26.00
2018-06-15T10:15:41.493Z,26.40
2018-06-15T10:18:10.369Z,26.40
2018-06-15T10:20:38.910Z,26.50
2018-06-15T10:23:07.449Z,26.70
2018-06-15T10:25:36.223Z,26.70
2018-06-15T10:28:04.908Z,26.00
2018-06-15T10:30:33.684Z,26.00
2018-06-15T10:33:02.347Z,24.60
2018-06-15T10:35:31.110Z,25.50
2018-06-15T10:37:59.709Z,25.80
2018-06-15T10:40:28.255Z,26.00
2018-06-15T10:42:56.911Z,26.10
2018-06-15T10:45:25.548Z,26.10
2018-06-15T10:47:54.067Z,25.30
2018-06-15T10:50:22.655Z,25.80
2018-06-15T10:52:51.248Z,26.70
2018-06-15T10:55:20.373Z,26.40
2018-06-15T10:57:48.947Z,25.60
2018-06-15T11:00:17.505Z,26.00
2018-06-15T11:02:46.552Z,26.50
2018-06-15T11:05:15.136Z,26.90
2018-06-15T11:07:44.144Z,26.40
2018-06-15T11:10:13.403Z,27.60
2018-06-15T11:12:42.368Z,27.50
2018-06-15T11:15:10.952Z,26.80
2018-06-15T11:17:39.559Z,26.60
2018-06-15T11:20:08.262Z,26.40
2018-06-15T11:22:37.353Z,26.80
2018-06-15T11:25:06.165Z,27.00
2018-06-15T11:27:34.706Z,26.50
2018-06-15T11:30:03.465Z,25.80
2018-06-15T11:32:32.250Z,25.90
2018-06-15T11:35:01.065Z,27.20
2018-06-15T11:37:29.783Z,26.90
2018-06-15T11:39:58.499Z,26.60
2018-06-15T11:42:27.187Z,26.70
2018-06-15T11:44:55.839Z,27.20
2018-06-15T11:47:24.582Z,26.40
2018-06-15T11:49:53.258Z,26.10
2018-06-15T11:52:21.882Z,26.60
2018-06-15T11:54:50.417Z,27.00
2018-06-15T11:57:18.946Z,27.30
2018-06-15T11:59:47.634Z,26.60
2018-06-15T12:02:16.450Z,27.40
2018-06-15T12:04:45.019Z,27.40
2018-06-15T12:07:14.123Z,26.10
2018-06-15T12:09:42.666Z,26.40
2018-06-15T12:12:11.737Z,26.70
2018-06-15T12:14:40.298Z,27.40
2018-06-15T12:17:08.890Z,26.50
2018-06-15T12:19:37.421Z,26.30
2018-06-15T12:22:06.109Z,27.20
2018-06-15T12:24:34.745Z,27.30
2018-06-15T12:27:03.647Z,27.60
2018-06-15T12:32:00.356Z,27.10
2018-06-15T12:34:28.888Z,28.00
2018-06-15T12:36:57.637Z,28.10
2018-06-15T12:39:26.743Z,26.70
2018-06-15T12:41:55.467Z,27.50
2018-06-15T12:44:24.249Z,28.40
2018-06-15T12:46:52.764Z,27.70
2018-06-15T12:49:21.579Z,27.80
2018-06-15T12:51:50.172Z,28.00
2018-06-15T12:54:18.804Z,27.80
2018-06-15T12:56:47.375Z,27.20
2018-06-15T12:59:15.968Z,27.40
2018-06-15T13:01:44.843Z,26.90
2018-06-15T13:04:13.412Z,28.20
2018-06-15T13:09:11.925Z,27.50
2018-06-15T13:11:40.585Z,28.40
2018-06-15T13:14:09.077Z,27.70
2018-06-15T13:16:37.811Z,27.50
2018-06-15T13:19:06.467Z,27.30
2018-06-15T13:21:36.353Z,27.80
2018-06-15T13:24:04.937Z,28.20
2018-06-15T13:26:33.465Z,27.50
2018-06-15T13:29:02.022Z,27.60
2018-06-15T13:31:30.667Z,27.50
2018-06-15T13:33:59.145Z,27.40
2018-06-15T13:36:27.697Z,28.00
2018-06-15T13:38:56.255Z,27.90
2018-06-15T13:41:24.758Z,27.70
2018-06-15T13:43:53.805Z,27.50
2018-06-15T13:46:22.503Z,27.90
2018-06-15T13:48:51.614Z,27.70
2018-06-15T13:51:20.270Z,28.60
2018-06-15T13:53:48.836Z,28.20
2018-06-15T13:56:17.423Z,27.90
2018-06-15T13:58:45.934Z,26.30
2018-06-15T14:01:14.760Z,26.90
2018-06-15T14:03:43.308Z,26.80
2018-06-15T14:06:11.978Z,27.30
2018-06-15T14:08:40.528Z,26.20
2018-06-15T14:11:09.091Z,25.40
2018-06-15T14:13:37.672Z,25.50
2018-06-15T14:16:06.889Z,25.90
2018-06-15T14:18:35.502Z,25.50
2018-06-15T14:21:04.294Z,25.60
2018-06-15T14:23:32.878Z,25.80
2018-06-15T14:26:01.653Z,25.50
2018-06-15T14:28:30.231Z,25.60
2018-06-15T14:30:58.794Z,25.60
2018-06-15T14:33:27.419Z,25.80
2018-06-15T14:35:56.253Z,25.50
2018-06-15T14:38:24.915Z,25.50
2018-06-15T14:40:53.914Z,25.60
2018-06-15T14:43:22.927Z,25.20
2018-06-15T14:45:51.464Z,25.10
2018-06-15T14:48:20.408Z,24.90
2018-06-15T14:50:49.081Z,24.70
2018-06-15T14:53:18.024Z,25.10
2018-06-15T14:55:46.641Z,25.40
2018-06-15T14:58:15.269Z,25.50
2018-06-15T15:00:43.820Z,25.50
2018-06-15T15:03:12.509Z,25.50
2018-06-15T15:05:41.132Z,25.40
2018-06-15T15:08:09.696Z,25.50
2018-06-15T15:10:38.209Z,25.30
2018-06-15T15:13:06.848Z,25.30
2018-06-15T15:15:35.766Z,25.00
2018-06-15T15:18:04.884Z,25.50
2018-06-15T15:20:34.328Z,25.50
2018-06-15T15:23:03.088Z,24.90
2018-06-15T15:25:32.137Z,24.80
2018-06-15T15:28:00.616Z,25.00
2018-06-15T15:30:29.320Z,25.50
2018-06-15T15:32:57.820Z,24.90
2018-06-15T15:35:26.334Z,25.30
2018-06-15T15:37:54.873Z,25.30
2018-06-15T15:40:23.377Z,24.60
2018-06-15T15:42:51.933Z,24.60
2018-06-15T15:45:20.719Z,24.80
2018-06-15T15:47:49.833Z,24.30
2018-06-15T15:50:18.742Z,24.70
2018-06-15T15:52:47.557Z,24.90
2018-06-15T15:55:16.263Z,24.70
2018-06-15T15:57:45.143Z,24.70
2018-06-15T16:00:13.918Z,24.60
2018-06-15T16:02:42.526Z,24.30
2018-06-15T16:05:11.166Z,24.50
2018-06-15T16:07:39.692Z,25.00
2018-06-15T16:10:08.468Z,25.00
2018-06-15T16:12:37.006Z,24.60
2018-06-15T16:15:05.765Z,24.80
2018-06-15T16:17:34.360Z,24.80
2018-06-15T16:22:31.178Z,24.50
2018-06-15T16:25:00.041Z,24.30
2018-06-15T16:27:28.603Z,24.30
2018-06-15T16:29:57.205Z,24.60
2018-06-15T16:32:25.832Z,24.60
2018-06-15T16:34:54.375Z,24.20
2018-06-15T16:37:23.148Z,24.00
2018-06-15T16:39:51.890Z,23.90
2018-06-15T16:44:49.048Z,24.30
2018-06-15T16:47:17.639Z,24.50
2018-06-15T16:49:46.206Z,24.20
2018-06-15T16:52:15.182Z,24.40
2018-06-15T16:54:44.065Z,24.40
2018-06-15T16:57:13.058Z,24.40
2018-06-15T16:59:41.612Z,24.60
2018-06-15T17:02:10.540Z,24.20
2018-06-15T17:04:39.148Z,24.00
2018-06-15T17:07:07.823Z,24.10
2018-06-15T17:09:36.437Z,23.90
2018-06-15T17:12:05.043Z,23.90
2018-06-15T17:14:33.602Z,24.20
2018-06-15T17:17:02.185Z,24.40
2018-06-15T17:19:30.763Z,24.90
2018-06-15T17:21:59.287Z,25.00
2018-06-15T17:24:28.067Z,24.80
2018-06-15T17:26:56.798Z,24.70
2018-06-15T17:31:54.079Z,24.50
2018-06-15T17:34:22.833Z,24.40
2018-06-15T17:36:51.588Z,24.40
2018-06-15T17:39:20.161Z,24.30
2018-06-15T17:41:48.732Z,24.00
2018-06-15T17:44:17.372Z,23.90
2018-06-15T17:46:46.130Z,24.00
2018-06-15T17:49:14.698Z,23.60
2018-06-15T17:51:43.421Z,23.70
2018-06-15T17:54:11.957Z,23.50
2018-06-15T17:56:40.795Z,23.70
2018-06-15T17:59:09.479Z,23.60
2018-06-15T18:01:38.370Z,23.40
2018-06-15T18:06:35.342Z,23.20
2018-06-15T18:09:05.633Z,23.30
2018-06-15T18:11:34.119Z,23.20
2018-06-15T18:14:03.251Z,23.20
2018-06-15T18:16:31.802Z,23.30
2018-06-15T18:19:00.373Z,23.40
2018-06-15T18:21:28.969Z,23.30
2018-06-15T18:23:57.595Z,23.20
2018-06-15T18:26:26.111Z,23.00
2018-06-15T18:28:54.829Z,22.90
2018-06-15T18:31:23.390Z,22.80
2018-06-15T18:33:52.909Z,22.90
2018-06-15T18:36:21.430Z,22.90
2018-06-15T18:38:49.919Z,22.90
2018-06-15T18:41:18.909Z,22.90
2018-06-15T18:43:47.376Z,22.90
2018-06-15T18:46:15.929Z,22.90
2018-06-15T18:48:44.487Z,23.00
2018-06-15T18:51:13.069Z,22.90
2018-06-15T18:53:41.700Z,22.90
2018-06-15T18:56:10.419Z,22.90
2018-06-15T18:58:38.964Z,22.80
2018-06-15T19:01:08.101Z,22.60
2018-06-15T19:03:36.641Z,22.50
2018-06-15T19:06:05.242Z,22.60
2018-06-15T19:08:33.785Z,22.50
2018-06-15T19:13:30.550Z,22.40
2018-06-15T19:15:59.069Z,22.30
2018-06-15T19:18:27.625Z,22.20
2018-06-15T19:20:56.636Z,22.20
2018-06-15T19:23:25.298Z,22.40
2018-06-15T19:25:53.920Z,22.50
2018-06-15T19:28:22.454Z,22.40
2018-06-15T19:30:50.983Z,22.20
2018-06-15T19:33:19.620Z,22.00
2018-06-15T19:35:48.157Z,21.90
2018-06-15T19:38:16.786Z,22.00
2018-06-15T19:40:45.345Z,22.00
2018-06-15T19:43:13.890Z,21.90
2018-06-15T19:45:42.809Z,21.90
2018-06-15T19:48:11.371Z,22.10
2018-06-15T19:50:39.916Z,21.90
2018-06-15T19:53:08.558Z,21.90
2018-06-15T19:55:43.864Z,22.10
2018-06-15T19:58:12.365Z,22.20
2018-06-15T20:00:41.002Z,22.00
2018-06-15T20:03:09.586Z,21.70
2018-06-15T20:05:38.457Z,21.50
2018-06-15T20:08:06.998Z,21.30
2018-06-15T20:10:35.953Z,21.10
2018-06-15T20:13:04.437Z,21.00
2018-06-15T20:15:33.249Z,20.80
2018-06-15T20:18:01.819Z,20.60
2018-06-15T20:20:30.425Z,20.80
2018-06-15T20:22:58.941Z,20.60
2018-06-15T20:25:27.485Z,20.50
2018-06-15T20:27:55.997Z,20.40
2018-06-15T20:30:24.521Z,20.60
2018-06-15T20:32:53.067Z,20.80
2018-06-15T20:35:21.733Z,20.80
2018-06-15T20:40:18.481Z,20.70
2018-06-15T20:42:47.052Z,20.70
2018-06-15T20:45:15.587Z,20.60
2018-06-15T20:47:44.071Z,20.40
2018-06-15T20:50:12.674Z,20.20
2018-06-15T20:52:41.156Z,20.10
2018-06-15T20:55:09.645Z,19.90
2018-06-15T20:57:38.157Z,19.80
2018-06-15T21:00:06.723Z,19.80
2018-06-15T21:02:35.624Z,19.80
2018-06-15T21:05:04.237Z,19.70
2018-06-15T21:07:32.828Z,19.60
2018-06-15T21:10:01.446Z,19.40
2018-06-15T21:12:29.988Z,19.30
2018-06-15T21:14:59.789Z,19.30
2018-06-15T21:19:56.505Z,19.30
2018-06-15T21:22:25.057Z,19.30
2018-06-15T21:24:53.540Z,19.10
2018-06-15T21:27:22.126Z,19.00
2018-06-15T21:29:51.040Z,19.00
2018-06-15T21:32:19.621Z,18.80
2018-06-15T21:34:48.105Z,18.80
2018-06-15T21:39:51.664Z,18.70
2018-06-15T21:42:20.192Z,18.60
2018-06-15T21:44:49.197Z,18.50
2018-06-15T21:47:18.074Z,18.50
2018-06-15T21:49:46.563Z,18.40
2018-06-15T21:52:15.317Z,18.40
2018-06-15T21:57:12.061Z,18.20
2018-06-15T21:59:40.589Z,18.20
2018-06-15T22:02:09.168Z,18.10
2018-06-15T22:04:37.688Z,18.10
2018-06-15T22:07:06.194Z,18.00
2018-06-15T22:09:34.779Z,17.90
2018-06-15T22:12:03.469Z,17.80
2018-06-15T22:14:32.064Z,17.80
2018-06-15T22:17:00.726Z,17.70
2018-06-15T22:19:29.497Z,17.60
2018-06-15T22:21:58.020Z,17.60
2018-06-15T22:24:26.716Z,17.60
2018-06-15T22:26:55.372Z,17.50
2018-06-15T22:29:23.836Z,17.40
2018-06-15T22:31:52.312Z,17.30
2018-06-15T22:34:20.802Z,17.30
2018-06-15T22:36:49.325Z,17.30
2018-06-15T22:39:17.876Z,17.20
2018-06-15T22:41:46.457Z,17.20
2018-06-15T22:44:15.045Z,17.10
2018-06-15T22:46:43.668Z,17.10
2018-06-15T22:49:12.708Z,17.00
2018-06-15T22:51:41.994Z,17.00
2018-06-15T22:54:10.684Z,16.70
2018-06-15T22:56:39.309Z,16.80
2018-06-15T22:59:07.885Z,16.80
2018-06-15T23:01:36.369Z,16.80
2018-06-15T23:06:33.238Z,16.70
2018-06-15T23:09:01.770Z,16.70
2018-06-15T23:11:30.404Z,16.60
2018-06-15T23:16:27.289Z,16.50
2018-06-15T23:18:55.967Z,16.50
2018-06-15T23:21:24.509Z,16.40
2018-06-15T23:26:21.323Z,16.40
2018-06-15T23:28:49.840Z,16.40
2018-06-15T23:31:18.357Z,16.30
2018-06-15T23:33:47.191Z,16.30
2018-06-15T23:36:15.750Z,16.20
2018-06-15T23:38:44.336Z,16.20
2018-06-15T23:41:12.809Z,16.10
2018-06-15T23:43:41.376Z,16.00
2018-06-15T23:46:09.944Z,16.00
2018-06-15T23:48:38.468Z,16.00
2018-06-15T23:51:07.357Z,16.00
2018-06-15T23:53:35.835Z,16.00
2018-06-15T23:56:04.519Z,15.90
2018-06-15T23:58:32.988Z,15.90
